createdAt,value
2022-08-23T00:00:34.151Z,94209.44
2022-08-23T00:01:33.322Z,94226.25
2022-08-23T00:02:30.900Z,94233.38
2022-08-23T00:03:27.718Z,94239.06
2022-08-23T00:04:35.022Z,94234.59
2022-08-23T00:05:32.124Z,94224.47
2022-08-23T00:06:29.825Z,94228.50
2022-08-23T00:07:28.135Z,94195.03
2022-08-23T00:08:29.494Z,94213.19
2022-08-23T00:09:27.966Z,94230.94
2022-08-23T00:10:25.033Z,94224.78
2022-08-23T00:11:42.011Z,94224.88
2022-08-23T00:12:39.651Z,94240.72
2022-08-23T00:13:47.765Z,94243.31
2022-08-23T00:14:51.302Z,94223.53
2022-08-23T00:15:49.170Z,94247.25
2022-08-23T00:16:46.534Z,94187.81
2022-08-23T00:17:43.842Z,94236.59
2022-08-23T00:18:41.566Z,94183.38
2022-08-23T00:19:46.226Z,94221.06
2022-08-23T00:20:42.977Z,94250.88
2022-08-23T00:21:41.486Z,94233.44
2022-08-23T00:22:40.078Z,94244.88
2022-08-23T00:23:37.302Z,94244.97
2022-08-23T00:24:39.143Z,94238.84
2022-08-23T00:25:37.638Z,94235.50
2022-08-23T00:26:52.337Z,94227.44
2022-08-23T00:27:49.102Z,94195.34
2022-08-23T00:28:45.958Z,94222.88
2022-08-23T00:29:50.221Z,94230.50
2022-08-23T00:30:47.023Z,94238.88
2022-08-23T00:31:44.187Z,94245.84
2022-08-23T00:32:41.892Z,94224.19
2022-08-23T00:33:38.668Z,94238.56
2022-08-23T00:34:37.153Z,94229.25
2022-08-23T00:35:33.905Z,94229.94
2022-08-23T00:36:30.698Z,94180.03
2022-08-23T00:37:29.714Z,94243.72
2022-08-23T00:38:33.067Z,94240.03
2022-08-23T00:39:31.644Z,94155.94
2022-08-23T00:40:28.474Z,94245.91
2022-08-23T00:41:26.253Z,94230.72
2022-08-23T00:43:03.496Z,94238.88
2022-08-23T00:44:22.785Z,94256.63
2022-08-23T00:45:53.902Z,94211.47
2022-08-23T00:47:04.454Z,94226.47
2022-08-23T00:48:04.158Z,94215.91
2022-08-23T00:49:07.216Z,94180.53
2022-08-23T00:50:29.882Z,94240.63
2022-08-23T00:51:53.014Z,94237.28
2022-08-23T00:52:50.423Z,94233.34
2022-08-23T00:53:53.673Z,94218.50
2022-08-23T00:54:53.968Z,94220.72
2022-08-23T00:55:57.426Z,94199.66
2022-08-23T00:56:57.886Z,94232.16
2022-08-23T00:57:55.242Z,94230.84
2022-08-23T00:58:51.994Z,94235.91
2022-08-23T00:59:48.935Z,94219.22
2022-08-23T01:00:47.380Z,94135.34
2022-08-23T01:01:44.636Z,94236.75
2022-08-23T01:02:42.763Z,94222.13
2022-08-23T01:03:43.183Z,94234.19
2022-08-23T01:04:55.465Z,94235.34
2022-08-23T01:06:07.251Z,94250.19
2022-08-23T01:07:30.005Z,94253.59
2022-08-23T01:08:31.638Z,94237.44
2022-08-23T01:09:29.253Z,94232.41
2022-08-23T01:10:52.593Z,94212.66
2022-08-23T01:12:00.495Z,94254.13
2022-08-23T01:13:30.039Z,94256.03
2022-08-23T01:14:41.462Z,94255.25
2022-08-23T01:16:04.300Z,94219.97
2022-08-23T01:17:27.157Z,94270.56
2022-08-23T01:18:27.675Z,94265.00
2022-08-23T01:19:32.941Z,94178.13
2022-08-23T01:20:50.108Z,94144.97
2022-08-23T01:22:17.129Z,94250.28
2022-08-23T01:23:31.330Z,94261.00
2022-08-23T01:25:06.460Z,94269.19
2022-08-23T01:25:46.401Z,94262.19
2022-08-23T01:26:43.454Z,94193.16
2022-08-23T01:27:41.246Z,94246.06
2022-08-23T01:28:40.919Z,94281.63
2022-08-23T01:29:42.718Z,94276.50
2022-08-23T01:30:43.945Z,94267.47
2022-08-23T01:31:40.805Z,94256.00
2022-08-23T01:32:48.670Z,94271.91
2022-08-23T01:33:57.068Z,94279.88
2022-08-23T01:34:53.895Z,94273.72
2022-08-23T01:35:57.325Z,94281.19
2022-08-23T01:36:56.481Z,94263.31
2022-08-23T01:37:53.567Z,94266.28
2022-08-23T01:38:50.680Z,94145.06
2022-08-23T01:39:47.620Z,94159.50
2022-08-23T01:40:45.022Z,94250.75
2022-08-23T01:41:41.790Z,94256.13
2022-08-23T01:42:41.568Z,94263.91
2022-08-23T01:43:38.335Z,94173.44
2022-08-23T01:44:35.390Z,94253.78
2022-08-23T01:45:33.713Z,94255.41
2022-08-23T01:46:30.482Z,94251.47
2022-08-23T01:47:27.609Z,94177.13
2022-08-23T01:48:25.029Z,94237.09
2022-08-23T01:49:21.762Z,94231.09
2022-08-23T01:50:18.955Z,94264.22
2022-08-23T01:51:20.146Z,94253.53
2022-08-23T01:52:17.273Z,94251.06
2022-08-23T01:53:14.997Z,94245.22
2022-08-23T01:54:12.110Z,94249.53
2022-08-23T01:55:10.305Z,94252.91
2022-08-23T01:56:08.479Z,94239.81
2022-08-23T01:57:06.378Z,94235.06
2022-08-23T01:58:06.007Z,94239.44
2022-08-23T01:59:03.126Z,94243.69
2022-08-23T02:00:01.048Z,94243.44
2022-08-23T02:00:57.897Z,94242.00
2022-08-23T02:01:54.738Z,94241.00
2022-08-23T02:02:52.437Z,94179.75
2022-08-23T02:03:53.683Z,94244.84
2022-08-23T02:05:01.453Z,94245.44
2022-08-23T02:05:58.970Z,94061.69
2022-08-23T02:06:55.698Z,94200.31
2022-08-23T02:07:52.558Z,94238.53
2022-08-23T02:09:01.389Z,94234.25
2022-08-23T02:10:00.435Z,94239.66
2022-08-23T02:10:59.784Z,94260.00
2022-08-23T02:11:56.565Z,94254.50
2022-08-23T02:12:53.282Z,94250.03
2022-08-23T02:13:54.498Z,94225.28
2022-08-23T02:14:51.295Z,94248.69
2022-08-23T02:15:51.366Z,94156.28
2022-08-23T02:17:03.009Z,94253.97
2022-08-23T02:18:01.075Z,94233.38
2022-08-23T02:18:58.448Z,94235.22
2022-08-23T02:19:55.884Z,94251.03
2022-08-23T02:20:53.068Z,94239.34
2022-08-23T02:21:50.297Z,94244.03
2022-08-23T02:22:47.062Z,94173.59
2022-08-23T02:23:43.909Z,94226.03
2022-08-23T02:24:46.286Z,94241.69
2022-08-23T02:25:43.806Z,94248.00
2022-08-23T02:26:46.480Z,94230.72
2022-08-23T02:27:44.232Z,94241.31
2022-08-23T02:28:41.502Z,94233.50
2022-08-23T02:29:39.842Z,94226.44
2022-08-23T02:30:36.727Z,94208.34
2022-08-23T02:31:34.429Z,94211.50
2022-08-23T02:32:31.155Z,94134.94
2022-08-23T02:33:28.382Z,94075.63
2022-08-23T02:34:25.384Z,94241.75
2022-08-23T02:35:25.440Z,94215.31
2022-08-23T02:37:24.045Z,94232.91
2022-08-23T02:38:20.909Z,94243.66
2022-08-23T02:39:19.304Z,94243.84
2022-08-23T02:40:16.625Z,94097.94
2022-08-23T02:41:14.198Z,94230.38
2022-08-23T02:42:12.171Z,94249.84
2022-08-23T02:43:09.399Z,94249.94
2022-08-23T02:44:06.135Z,94251.75
2022-08-23T02:45:03.609Z,94211.72
2022-08-23T02:46:00.337Z,94227.72
2022-08-23T02:46:57.238Z,94237.75
2022-08-23T02:47:54.310Z,94249.34
2022-08-23T02:48:51.099Z,94263.78
2022-08-23T02:49:47.921Z,94139.69
2022-08-23T02:50:44.680Z,94231.78
2022-08-23T02:51:43.174Z,94258.66
2022-08-23T02:52:40.023Z,94225.75
2022-08-23T02:53:37.443Z,94249.56
2022-08-23T02:54:35.814Z,94260.13
2022-08-23T02:55:32.573Z,94248.38
2022-08-23T02:56:29.350Z,94239.78
2022-08-23T02:57:27.057Z,94203.75
2022-08-23T02:58:26.259Z,94236.16
2022-08-23T02:59:23.097Z,94246.81
2022-08-23T03:00:20.209Z,94209.41
2022-08-23T03:01:19.399Z,94255.31
2022-08-23T03:02:16.233Z,94250.28
2022-08-23T03:03:13.094Z,94246.00
2022-08-23T03:04:10.778Z,94204.97
2022-08-23T03:05:09.514Z,94114.78
2022-08-23T03:06:24.838Z,94229.28
2022-08-23T03:07:22.780Z,94246.81
2022-08-23T03:08:20.746Z,94168.34
2022-08-23T03:09:17.672Z,94254.97
2022-08-23T03:10:16.926Z,94242.13
2022-08-23T03:11:17.135Z,94256.53
2022-08-23T03:12:13.877Z,94127.31
2022-08-23T03:13:11.988Z,94247.31
2022-08-23T03:14:08.831Z,94253.78
2022-08-23T03:15:06.921Z,94240.19
2022-08-23T03:17:19.064Z,94128.53
2022-08-23T03:18:16.309Z,94212.19
2022-08-23T03:19:13.524Z,94257.59
2022-08-23T03:20:11.496Z,94207.69
2022-08-23T03:21:09.403Z,94214.13
2022-08-23T03:22:06.282Z,94242.75
2022-08-23T03:23:03.246Z,94248.66
2022-08-23T03:24:00.735Z,94255.50
2022-08-23T03:24:57.491Z,94251.25
2022-08-23T03:25:54.238Z,94222.09
2022-08-23T03:26:51.402Z,94207.34
2022-08-23T03:27:48.217Z,94251.63
2022-08-23T03:28:47.039Z,94246.47
2022-08-23T03:29:43.949Z,94149.47
2022-08-23T03:30:40.688Z,94248.50
2022-08-23T03:31:37.870Z,94237.81
2022-08-23T03:32:34.589Z,94241.81
2022-08-23T03:33:31.358Z,94232.81
2022-08-23T03:34:28.066Z,94239.25
2022-08-23T03:35:24.781Z,94226.84
2022-08-23T03:36:27.761Z,94241.91
2022-08-23T03:37:25.152Z,94249.94
2022-08-23T03:38:21.913Z,94260.97
2022-08-23T03:39:18.626Z,94254.22
2022-08-23T03:40:15.565Z,94237.50
2022-08-23T03:41:13.098Z,94244.25
2022-08-23T03:42:09.988Z,94244.47
2022-08-23T03:43:06.744Z,94169.91
2022-08-23T03:44:04.905Z,94253.53
2022-08-23T03:45:02.727Z,94238.91
2022-08-23T03:45:59.683Z,94219.44
2022-08-23T03:46:56.633Z,94238.09
2022-08-23T03:47:53.898Z,94258.88
2022-08-23T03:48:58.575Z,94258.66
2022-08-23T03:49:56.780Z,94245.03
2022-08-23T03:50:54.711Z,94214.91
2022-08-23T03:51:52.042Z,94255.72
2022-08-23T03:52:48.758Z,94256.69
2022-08-23T03:53:49.358Z,94247.84
2022-08-23T03:54:46.160Z,94256.66
2022-08-23T03:55:44.250Z,94267.81
2022-08-23T03:56:59.777Z,94266.22
2022-08-23T03:57:56.569Z,94287.41
2022-08-23T03:58:55.498Z,94277.00
2022-08-23T03:59:52.200Z,94291.53
2022-08-23T04:00:49.438Z,94219.34
2022-08-23T04:01:46.241Z,94293.59
2022-08-23T04:02:43.069Z,94294.47
2022-08-23T04:03:39.821Z,94295.41
2022-08-23T04:04:37.198Z,94190.28
2022-08-23T04:05:33.986Z,94294.72
2022-08-23T04:06:31.948Z,94325.75
2022-08-23T04:07:30.085Z,94242.63
2022-08-23T04:08:33.426Z,94314.41
2022-08-23T04:09:30.535Z,94312.88
2022-08-23T04:10:27.321Z,94312.53
2022-08-23T04:11:25.415Z,94268.16
2022-08-23T04:12:23.376Z,94322.81
2022-08-23T04:13:20.462Z,94316.00
2022-08-23T04:14:17.241Z,94303.13
2022-08-23T04:15:13.989Z,94330.03
2022-08-23T04:16:11.139Z,94327.34
2022-08-23T04:17:08.243Z,94314.22
2022-08-23T04:18:05.046Z,94314.59
2022-08-23T04:19:09.077Z,94250.88
2022-08-23T04:20:07.284Z,94320.28
2022-08-23T04:21:10.452Z,94319.00
2022-08-23T04:22:16.145Z,94335.59
2022-08-23T04:23:12.913Z,94322.53
2022-08-23T04:24:09.812Z,94281.56
2022-08-23T04:25:14.075Z,94331.69
2022-08-23T04:26:28.375Z,94227.75
2022-08-23T04:27:26.859Z,94332.41
2022-08-23T04:28:24.163Z,94301.31
2022-08-23T04:29:31.436Z,94329.63
2022-08-23T04:30:32.451Z,94326.94
2022-08-23T04:31:34.559Z,94332.50
2022-08-23T04:32:31.721Z,93981.75
2022-08-23T04:33:32.953Z,94306.22
2022-08-23T04:34:30.254Z,94322.16
2022-08-23T04:35:27.072Z,94301.94
2022-08-23T04:36:23.941Z,94254.88
2022-08-23T04:37:20.807Z,94335.28
2022-08-23T04:38:24.210Z,94325.38
2022-08-23T04:39:22.223Z,94324.97
2022-08-23T04:40:37.421Z,94326.19
2022-08-23T04:41:52.637Z,94322.53
2022-08-23T04:42:49.372Z,94328.88
2022-08-23T04:43:46.279Z,94324.91
2022-08-23T04:44:43.088Z,94336.69
2022-08-23T04:45:41.465Z,94221.06
2022-08-23T04:46:39.866Z,94341.84
2022-08-23T04:47:40.351Z,94336.34
2022-08-23T04:48:37.197Z,94241.19
2022-08-23T04:49:33.986Z,94329.91
2022-08-23T04:50:31.271Z,94278.31
2022-08-23T04:51:28.043Z,94312.03
2022-08-23T04:52:24.808Z,94231.78
2022-08-23T04:53:21.542Z,94312.88
2022-08-23T04:54:19.069Z,94299.81
2022-08-23T04:55:19.317Z,94302.03
2022-08-23T04:56:16.181Z,94327.00
2022-08-23T04:57:12.923Z,94305.31
2022-08-23T04:58:09.774Z,94322.81
2022-08-23T04:59:07.386Z,94216.22
2022-08-23T05:00:06.578Z,94331.75
2022-08-23T05:01:07.854Z,94320.91
2022-08-23T05:02:05.439Z,94305.41
2022-08-23T05:03:02.238Z,94338.38
2022-08-23T05:04:00.259Z,94311.97
2022-08-23T05:04:57.178Z,94334.50
2022-08-23T05:05:54.540Z,94341.09
2022-08-23T05:06:52.212Z,94329.75
2022-08-23T05:07:48.998Z,94333.91
2022-08-23T05:08:45.730Z,94281.91
2022-08-23T05:09:42.469Z,94336.25
2022-08-23T05:10:39.363Z,94273.34
2022-08-23T05:11:36.128Z,94341.56
2022-08-23T05:12:33.340Z,94345.59
2022-08-23T05:13:31.498Z,94331.66
2022-08-23T05:14:31.464Z,94342.13
2022-08-23T05:15:28.201Z,94347.97
2022-08-23T05:16:25.540Z,94374.41
2022-08-23T05:17:22.486Z,94319.72
2022-08-23T05:18:19.633Z,94327.97
2022-08-23T05:19:16.474Z,94356.06
2022-08-23T05:20:13.304Z,94344.53
2022-08-23T05:21:18.971Z,94328.38
2022-08-23T05:22:15.773Z,94361.41
2022-08-23T05:23:12.537Z,94280.47
2022-08-23T05:24:09.318Z,94300.88
2022-08-23T05:25:10.900Z,94341.72
2022-08-23T05:26:08.180Z,94352.78
2022-08-23T05:27:05.019Z,94363.56
2022-08-23T05:28:02.354Z,94351.50
2022-08-23T05:28:59.207Z,94363.47
2022-08-23T05:29:56.183Z,94351.19
2022-08-23T05:31:00.494Z,94353.16
2022-08-23T05:31:59.033Z,94364.97
2022-08-23T05:32:55.785Z,94363.63
2022-08-23T05:33:53.779Z,94351.00
2022-08-23T05:34:50.616Z,94350.03
2022-08-23T05:35:47.524Z,94354.09
2022-08-23T05:36:47.467Z,94354.50
2022-08-23T05:37:52.198Z,94364.13
2022-08-23T05:38:52.269Z,94364.31
2022-08-23T05:39:49.057Z,94364.19
2022-08-23T05:40:50.217Z,94361.13
2022-08-23T05:41:51.827Z,94337.19
2022-08-23T05:42:48.589Z,94311.16
2022-08-23T05:43:45.510Z,94358.88
2022-08-23T05:44:43.860Z,94263.56
2022-08-23T05:45:40.586Z,94232.91
2022-08-23T05:46:38.681Z,94363.72
2022-08-23T05:47:35.799Z,94349.13
2022-08-23T05:48:34.537Z,94346.53
2022-08-23T05:49:31.301Z,94359.09
2022-08-23T05:50:28.071Z,94352.66
2022-08-23T05:51:29.211Z,94282.38
2022-08-23T05:52:26.442Z,94352.28
2022-08-23T05:53:23.406Z,94361.91
2022-08-23T05:54:20.384Z,94261.69
2022-08-23T05:55:17.283Z,94372.16
2022-08-23T05:56:22.144Z,94359.94
2022-08-23T05:57:18.885Z,94381.63
2022-08-23T05:58:15.688Z,94340.66
2022-08-23T05:59:15.921Z,94342.81
2022-08-23T06:00:15.197Z,94364.44
2022-08-23T06:01:13.668Z,94315.94
2022-08-23T06:02:10.529Z,94364.59
2022-08-23T06:03:07.375Z,94271.31
2022-08-23T06:04:07.484Z,94350.59
2022-08-23T06:05:05.434Z,94355.28
2022-08-23T06:06:03.631Z,94324.28
2022-08-23T06:07:00.432Z,94325.03
2022-08-23T06:08:00.244Z,94311.00
2022-08-23T06:08:57.186Z,94362.88
2022-08-23T06:09:55.542Z,94374.50
2022-08-23T06:11:10.275Z,94371.47
2022-08-23T06:12:07.261Z,94376.38
2022-08-23T06:13:04.322Z,94377.22
2022-08-23T06:14:04.445Z,94280.72
2022-08-23T06:15:02.004Z,94380.72
2022-08-23T06:15:59.533Z,94357.94
2022-08-23T06:16:56.602Z,94394.44
2022-08-23T06:17:53.563Z,94390.16
2022-08-23T06:18:52.029Z,94396.13
2022-08-23T06:19:48.774Z,94399.31
2022-08-23T06:20:45.546Z,94388.34
2022-08-23T06:21:43.568Z,94397.41
2022-08-23T06:22:40.305Z,94375.16
2022-08-23T06:23:38.283Z,94402.00
2022-08-23T06:24:35.440Z,94391.59
2022-08-23T06:25:34.939Z,94357.91
2022-08-23T06:26:35.177Z,94386.97
2022-08-23T06:27:31.905Z,94417.16
2022-08-23T06:28:30.372Z,94399.28
2022-08-23T06:29:27.648Z,94402.22
2022-08-23T06:30:24.405Z,94375.75
2022-08-23T06:31:42.741Z,94409.75
2022-08-23T06:32:39.542Z,94389.06
2022-08-23T06:33:37.685Z,94405.84
2022-08-23T06:34:36.904Z,94365.16
2022-08-23T06:35:40.131Z,94374.59
2022-08-23T06:36:37.327Z,94277.78
2022-08-23T06:37:34.167Z,94397.03
2022-08-23T06:38:31.914Z,94394.19
2022-08-23T06:39:34.422Z,94394.84
2022-08-23T06:40:36.723Z,94403.03
2022-08-23T06:41:34.652Z,94374.22
2022-08-23T06:42:38.494Z,94403.69
2022-08-23T06:43:36.737Z,94404.34
2022-08-23T06:44:35.617Z,94354.28
2022-08-23T06:45:35.235Z,94402.56
2022-08-23T06:46:33.110Z,94357.47
2022-08-23T06:47:31.682Z,94268.91
2022-08-23T06:48:28.435Z,94329.22
2022-08-23T06:49:26.116Z,94360.56
2022-08-23T06:50:23.441Z,94403.66
2022-08-23T06:51:33.858Z,94395.50
2022-08-23T06:52:31.189Z,94404.94
2022-08-23T06:53:29.197Z,94413.50
2022-08-23T06:54:30.273Z,94401.41
2022-08-23T06:55:27.059Z,94404.56
2022-08-23T06:56:26.557Z,94387.88
2022-08-23T06:57:23.384Z,94412.69
2022-08-23T06:58:20.133Z,94398.22
2022-08-23T06:59:18.737Z,94397.69
2022-08-23T07:00:20.174Z,94409.72
2022-08-23T07:01:48.735Z,94400.19
2022-08-23T07:02:45.565Z,94386.59
2022-08-23T07:03:47.303Z,94373.94
2022-08-23T07:04:44.342Z,94374.75
2022-08-23T07:05:41.074Z,94404.59
2022-08-23T07:06:38.741Z,94378.56
2022-08-23T07:07:41.251Z,94397.69
2022-08-23T07:08:42.066Z,94306.53
2022-08-23T07:09:40.588Z,94408.44
2022-08-23T07:10:37.349Z,94398.63
2022-08-23T07:11:34.999Z,94383.94
2022-08-23T07:12:31.772Z,94389.91
2022-08-23T07:13:28.575Z,94371.16
2022-08-23T07:14:25.974Z,94417.47
2022-08-23T07:15:22.691Z,94406.72
2022-08-23T07:16:20.623Z,94413.25
2022-08-23T07:17:17.499Z,94407.47
2022-08-23T07:18:14.419Z,94409.81
2022-08-23T07:19:12.807Z,94386.16
2022-08-23T07:20:09.800Z,94382.81
2022-08-23T07:21:07.374Z,94413.06
2022-08-23T07:22:06.133Z,94409.56
2022-08-23T07:23:03.104Z,94418.63
2022-08-23T07:23:59.944Z,94412.78
2022-08-23T07:24:57.508Z,94392.22
2022-08-23T07:25:54.244Z,94415.16
2022-08-23T07:26:54.572Z,94379.94
2022-08-23T07:27:51.302Z,94360.53
2022-08-23T07:28:48.889Z,94392.97
2022-08-23T07:29:45.602Z,94368.94
2022-08-23T07:30:45.238Z,94374.19
2022-08-23T07:31:47.632Z,94401.22
2022-08-23T07:32:45.348Z,94410.34
2022-08-23T07:33:44.695Z,94367.44
2022-08-23T07:34:41.534Z,94293.63
2022-08-23T07:35:40.377Z,94372.22
2022-08-23T07:36:39.298Z,94408.28
2022-08-23T07:37:37.764Z,94262.38
2022-08-23T07:38:35.337Z,94384.59
2022-08-23T07:39:32.242Z,94397.56
2022-08-23T07:40:29.078Z,94385.44
2022-08-23T07:41:32.820Z,94414.59
2022-08-23T07:42:29.849Z,94404.16
2022-08-23T07:43:27.458Z,94404.09
2022-08-23T07:44:27.397Z,94402.31
2022-08-23T07:45:24.273Z,94414.91
2022-08-23T07:46:21.067Z,94415.09
2022-08-23T07:47:18.909Z,94408.25
2022-08-23T07:48:31.802Z,94415.25
2022-08-23T07:49:33.403Z,94398.75
2022-08-23T07:50:30.655Z,94394.91
2022-08-23T07:51:30.977Z,94408.72
2022-08-23T07:52:27.806Z,94382.13
2022-08-23T07:53:31.790Z,94409.81
2022-08-23T07:54:34.699Z,94417.88
2022-08-23T07:55:34.294Z,94405.22
2022-08-23T07:56:31.601Z,94415.81
2022-08-23T07:57:28.589Z,94418.16
2022-08-23T07:58:26.669Z,94368.81
2022-08-23T07:59:23.885Z,94426.44
2022-08-23T08:00:20.881Z,94422.47
2022-08-23T08:01:23.292Z,94422.44
2022-08-23T08:02:20.194Z,94417.25
2022-08-23T08:03:17.293Z,94412.22
2022-08-23T08:04:14.125Z,94408.94
2022-08-23T08:05:10.894Z,94419.47
2022-08-23T08:06:16.972Z,94415.66
2022-08-23T08:07:21.730Z,94416.00
2022-08-23T08:08:18.526Z,94429.50
2022-08-23T08:09:16.537Z,94414.00
2022-08-23T08:10:13.295Z,94445.66
2022-08-23T08:11:12.080Z,94431.69
2022-08-23T08:12:08.976Z,94408.47
2022-08-23T08:13:07.564Z,94418.38
2022-08-23T08:14:10.229Z,94447.91
2022-08-23T08:15:07.509Z,94433.00
2022-08-23T08:16:04.793Z,94444.16
2022-08-23T08:17:01.575Z,94437.31
2022-08-23T08:17:58.652Z,94431.72
2022-08-23T08:18:59.541Z,94431.19
2022-08-23T08:19:56.313Z,94430.91
2022-08-23T08:20:53.113Z,94353.94
2022-08-23T08:21:51.344Z,94433.88
2022-08-23T08:22:58.303Z,94434.56
2022-08-23T08:23:58.702Z,94447.28
2022-08-23T08:24:55.428Z,94428.53
2022-08-23T08:26:05.660Z,94443.66
2022-08-23T08:27:02.542Z,94449.66
2022-08-23T08:27:59.701Z,94452.88
2022-08-23T08:28:57.323Z,94443.66
2022-08-23T08:29:55.132Z,94420.84
2022-08-23T08:30:52.401Z,94455.63
2022-08-23T08:31:54.131Z,94421.69
2022-08-23T08:32:51.298Z,94360.28
2022-08-23T08:33:48.178Z,94443.91
2022-08-23T08:34:44.906Z,94439.34
2022-08-23T08:35:41.626Z,94450.28
2022-08-23T08:36:41.327Z,94444.31
2022-08-23T08:37:39.332Z,94441.63
2022-08-23T08:38:50.349Z,94414.47
2022-08-23T08:39:48.016Z,94301.09
2022-08-23T08:40:46.350Z,94453.34
2022-08-23T08:41:45.836Z,94433.88
2022-08-23T08:43:07.132Z,94434.38
2022-08-23T08:44:16.923Z,94375.25
2022-08-23T08:45:26.296Z,94438.84
2022-08-23T08:46:46.696Z,94434.84
2022-08-23T08:48:13.322Z,94432.91
2022-08-23T08:49:18.156Z,94404.00
2022-08-23T08:50:24.100Z,94385.56
2022-08-23T08:51:35.189Z,94448.09
2022-08-23T08:52:39.823Z,94346.44
2022-08-23T08:53:43.556Z,94431.69
2022-08-23T08:54:48.046Z,94440.53
2022-08-23T08:55:52.940Z,94378.06
2022-08-23T08:56:55.512Z,94417.41
2022-08-23T08:57:55.019Z,94426.94
2022-08-23T08:58:55.841Z,94428.22
2022-08-23T09:00:01.803Z,94404.31
2022-08-23T09:00:59.262Z,94431.13
2022-08-23T09:01:58.493Z,94421.00
2022-08-23T09:02:58.647Z,94418.50
2022-08-23T09:03:57.480Z,94390.94
2022-08-23T09:04:54.978Z,94312.84
2022-08-23T09:06:33.028Z,94403.16
2022-08-23T09:07:48.017Z,94411.41
2022-08-23T09:09:22.214Z,94403.66
2022-08-23T09:10:41.068Z,94422.31
2022-08-23T09:11:58.551Z,94333.25
2022-08-23T09:13:13.212Z,94404.38
2022-08-23T09:14:43.795Z,94400.22
2022-08-23T09:15:55.786Z,94339.34
2022-08-23T09:17:05.288Z,94396.13
2022-08-23T09:18:11.970Z,94413.66
2022-08-23T09:19:09.093Z,94393.97
2022-08-23T09:20:07.432Z,94305.88
2022-08-23T09:21:08.224Z,94304.97
2022-08-23T09:22:16.420Z,94387.66
2022-08-23T09:23:22.926Z,94388.03
2022-08-23T09:24:19.820Z,94400.06
2022-08-23T09:25:17.492Z,94414.00
2022-08-23T09:26:26.064Z,94367.09
2022-08-23T09:27:22.793Z,94400.94
2022-08-23T09:28:20.382Z,94383.81
2022-08-23T09:29:36.112Z,94392.31
2022-08-23T09:30:53.758Z,94416.78
2022-08-23T09:31:55.804Z,94352.28
2022-08-23T09:32:52.711Z,94405.94
2022-08-23T09:33:49.481Z,94329.81
2022-08-23T09:34:46.290Z,94396.88
2022-08-23T09:35:43.790Z,94391.38
2022-08-23T09:36:41.215Z,94397.03
2022-08-23T09:37:46.987Z,94392.63
2022-08-23T09:38:56.578Z,94410.31
2022-08-23T09:40:34.385Z,94399.34
2022-08-23T09:41:39.883Z,94394.53
2022-08-23T09:42:39.664Z,94410.47
2022-08-23T09:43:47.217Z,94399.09
2022-08-23T09:44:44.148Z,94381.81
2022-08-23T09:45:53.040Z,94293.16
2022-08-23T09:46:49.953Z,94330.63
2022-08-23T09:47:46.967Z,94415.94
2022-08-23T09:48:45.541Z,94298.28
2022-08-23T09:49:44.952Z,94401.88
2022-08-23T09:50:50.771Z,94401.59
2022-08-23T09:51:50.641Z,94400.50
2022-08-23T09:53:24.369Z,94291.56
2022-08-23T09:54:35.166Z,94406.41
2022-08-23T09:55:36.884Z,94401.16
2022-08-23T09:56:49.872Z,94383.94
2022-08-23T09:57:48.369Z,94306.28
2022-08-23T09:58:50.574Z,94314.06
2022-08-23T09:59:51.750Z,94385.38
2022-08-23T10:01:05.788Z,94357.41
2022-08-23T10:02:03.536Z,94312.94
2022-08-23T10:04:56.920Z,94402.28
2022-08-23T10:06:00.919Z,94402.56
2022-08-23T10:06:57.700Z,94391.03
2022-08-23T10:08:00.776Z,94404.47
2022-08-23T10:09:01.206Z,94360.25
2022-08-23T10:10:36.934Z,94405.16
2022-08-23T10:11:40.774Z,94419.59
2022-08-23T10:12:37.565Z,94349.00
2022-08-23T10:13:34.421Z,94408.63
2022-08-23T10:14:32.971Z,94336.91
2022-08-23T10:16:11.669Z,94408.91
2022-08-23T10:17:31.038Z,94406.13
2022-08-23T10:18:43.686Z,94410.66
2022-08-23T10:19:49.287Z,94411.91
2022-08-23T10:21:21.064Z,94409.28
2022-08-23T10:22:27.446Z,94400.09
2022-08-23T10:23:36.018Z,94409.91
2022-08-23T10:24:52.365Z,94352.66
2022-08-23T10:25:58.585Z,94386.47
2022-08-23T10:27:04.039Z,94408.34
2022-08-23T10:28:44.590Z,94369.66
2022-08-23T10:29:48.648Z,94413.25
2022-08-23T10:30:54.382Z,94395.38
2022-08-23T10:31:52.707Z,94393.47
2022-08-23T10:33:18.349Z,94394.88
2022-08-23T10:34:30.462Z,94387.81
2022-08-23T10:35:54.171Z,94396.31
2022-08-23T10:37:15.779Z,94395.47
2022-08-23T10:38:43.321Z,94393.44
2022-08-23T10:40:10.093Z,94399.56
2022-08-23T10:41:20.901Z,94386.97
2022-08-23T10:42:50.185Z,94379.38
2022-08-23T10:44:16.215Z,94383.69
2022-08-23T10:45:35.342Z,94389.22
2022-08-23T10:46:47.011Z,94382.38
2022-08-23T10:47:58.736Z,94376.03
2022-08-23T10:49:00.193Z,94389.94
2022-08-23T10:50:04.652Z,94369.59
2022-08-23T10:51:31.229Z,94388.75
2022-08-23T10:52:57.765Z,94378.66
2022-08-23T10:54:35.103Z,94382.41
2022-08-23T10:55:54.776Z,94280.69
2022-08-23T11:18:58.092Z,94321.44
2022-08-23T11:19:58.874Z,94366.81
2022-08-23T11:21:00.486Z,94365.78
2022-08-23T11:22:17.165Z,94371.06
2022-08-23T11:23:31.326Z,94342.84
2022-08-23T11:24:31.531Z,94371.78
2022-08-23T11:25:28.535Z,94364.16
2022-08-23T11:26:28.353Z,94368.00
2022-08-23T11:27:35.664Z,94366.34
2022-08-23T11:28:41.640Z,94365.88
2022-08-23T11:29:41.415Z,94263.25
2022-08-23T11:30:49.906Z,94370.31
2022-08-23T11:32:13.192Z,94357.25
2022-08-23T11:33:39.194Z,94366.38
2022-08-23T11:34:50.682Z,94363.50
2022-08-23T11:36:16.676Z,94320.75
2022-08-23T11:37:19.684Z,94364.31
2022-08-23T11:38:48.160Z,94363.25
2022-08-23T11:39:59.780Z,94358.25
2022-08-23T11:41:24.257Z,94362.63
2022-08-23T11:42:42.305Z,94354.84
2022-08-23T11:43:42.018Z,94340.94
2022-08-23T11:44:48.382Z,94348.19
2022-08-23T11:45:47.051Z,94351.66
2022-08-23T11:46:53.846Z,94353.19
2022-08-23T11:48:16.013Z,94353.00
2022-08-23T11:49:16.018Z,94364.59
2022-08-23T11:50:29.048Z,94382.88
2022-08-23T11:51:32.027Z,94359.16
2022-08-23T11:52:46.214Z,94361.31
2022-08-23T11:53:54.842Z,94363.41
2022-08-23T11:55:00.506Z,94359.97
2022-08-23T11:56:13.785Z,94359.28
2022-08-23T11:57:26.366Z,94356.38
2022-08-23T11:59:00.342Z,94365.38
2022-08-23T12:00:22.758Z,94351.91
2022-08-23T12:01:39.386Z,94357.88
2022-08-23T12:02:50.552Z,94290.22
2022-08-23T12:04:01.619Z,94354.25
2022-08-23T12:05:02.622Z,94361.19
2022-08-23T12:06:08.813Z,94333.38
2022-08-23T12:07:12.898Z,94355.84
2022-08-23T12:08:09.569Z,94343.25
2022-08-23T12:09:36.557Z,94348.59
2022-08-23T12:10:42.143Z,94343.56
2022-08-23T12:11:59.026Z,94351.09
2022-08-23T12:13:22.509Z,94351.84
2022-08-23T12:14:41.282Z,94354.44
2022-08-23T12:16:17.451Z,94351.00
2022-08-23T12:17:26.558Z,94349.53
2022-08-23T12:18:25.908Z,94364.09
2022-08-23T12:19:46.691Z,94352.03
2022-08-23T12:20:48.502Z,94366.13
2022-08-23T12:21:50.727Z,94358.00
2022-08-23T12:22:59.284Z,94348.22
2022-08-23T12:24:01.484Z,94355.63
2022-08-23T12:25:08.010Z,94359.97
2022-08-23T12:26:20.289Z,94347.03
2022-08-23T12:27:25.784Z,94346.13
2022-08-23T12:28:33.990Z,94346.00
2022-08-23T12:29:36.917Z,94345.22
2022-08-23T12:31:07.742Z,94325.59
2022-08-23T12:32:44.340Z,94339.41
2022-08-23T12:33:55.569Z,94336.41
2022-08-23T12:35:28.041Z,94338.91
2022-08-23T12:36:39.018Z,94345.88
2022-08-23T12:38:10.849Z,94352.94
2022-08-23T12:39:19.369Z,94354.44